sensor_id;sensor_type;location;lat;lon;timestamp;temperature;humidity
52543;DHT22;38449;52.696;6.186;2022-09-03T00:00:15;17.50;95.80
52543;DHT22;38449;52.696;6.186;2022-09-03T00:02:51;17.50;95.80
52543;DHT22;38449;52.696;6.186;2022-09-03T00:05:42;17.40;95.80
52543;DHT22;38449;52.696;6.186;2022-09-03T00:08:23;17.40;96.00
52543;DHT22;38449;52.696;6.186;2022-09-03T00:11:13;17.30;96.00
52543;DHT22;38449;52.696;6.186;2022-09-03T00:14:08;17.30;96.00
52543;DHT22;38449;52.696;6.186;2022-09-03T00:16:46;17.20;96.20
52543;DHT22;38449;52.696;6.186;2022-09-03T00:19:17;17.20;96.30
52543;DHT22;38449;52.696;6.186;2022-09-03T00:21:48;17.20;96.30
52543;DHT22;38449;52.696;6.186;2022-09-03T00:24:18;17.20;96.50
52543;DHT22;38449;52.696;6.186;2022-09-03T00:26:54;17.10;96.50
52543;DHT22;38449;52.696;6.186;2022-09-03T00:29:28;17.10;96.50
52543;DHT22;38449;52.696;6.186;2022-09-03T00:32:02;17.10;96.50
52543;DHT22;38449;52.696;6.186;2022-09-03T00:34:33;17.10;96.50
52543;DHT22;38449;52.696;6.186;2022-09-03T00:37:00;17.10;96.60
52543;DHT22;38449;52.696;6.186;2022-09-03T00:39:26;17.00;96.60
52543;DHT22;38449;52.696;6.186;2022-09-03T01:00:56;16.80;97.10
52543;DHT22;38449;52.696;6.186;2022-09-03T01:12:00;16.70;97.10
52543;DHT22;38449;52.696;6.186;2022-09-03T01:14:49;16.70;97.30
52543;DHT22;38449;52.696;6.186;2022-09-03T01:17:35;16.70;97.10
52543;DHT22;38449;52.696;6.186;2022-09-03T01:20:23;16.60;97.00
52543;DHT22;38449;52.696;6.186;2022-09-03T01:26:00;16.60;97.20
52543;DHT22;38449;52.696;6.186;2022-09-03T01:33:57;16.60;97.20
52543;DHT22;38449;52.696;6.186;2022-09-03T01:36:57;16.50;97.20
52543;DHT22;38449;52.696;6.186;2022-09-03T01:42:18;16.50;97.30
52543;DHT22;38449;52.696;6.186;2022-09-03T01:48:17;16.50;97.30
52543;DHT22;38449;52.696;6.186;2022-09-03T01:59:32;16.30;97.50
52543;DHT22;38449;52.696;6.186;2022-09-03T02:05:04;16.30;97.50
52543;DHT22;38449;52.696;6.186;2022-09-03T02:07:44;16.30;97.70
52543;DHT22;38449;52.696;6.186;2022-09-03T02:10:14;16.30;97.70
52543;DHT22;38449;52.696;6.186;2022-09-03T02:12:43;16.20;97.60
52543;DHT22;38449;52.696;6.186;2022-09-03T02:15:14;16.30;97.70
52543;DHT22;38449;52.696;6.186;2022-09-03T02:17:41;16.20;97.70
52543;DHT22;38449;52.696;6.186;2022-09-03T02:20:11;16.20;97.70
52543;DHT22;38449;52.696;6.186;2022-09-03T02:22:40;16.20;97.70
52543;DHT22;38449;52.696;6.186;2022-09-03T02:25:07;16.20;97.70
52543;DHT22;38449;52.696;6.186;2022-09-03T02:27:33;16.20;97.70
52543;DHT22;38449;52.696;6.186;2022-09-03T02:29:59;16.20;97.80
52543;DHT22;38449;52.696;6.186;2022-09-03T02:32:25;16.20;97.80
52543;DHT22;38449;52.696;6.186;2022-09-03T02:34:51;16.20;97.80
52543;DHT22;38449;52.696;6.186;2022-09-03T02:37:18;16.20;97.80
52543;DHT22;38449;52.696;6.186;2022-09-03T02:39:44;16.10;97.70
52543;DHT22;38449;52.696;6.186;2022-09-03T02:42:11;16.20;97.80
52543;DHT22;38449;52.696;6.186;2022-09-03T02:47:29;16.10;97.80
52543;DHT22;38449;52.696;6.186;2022-09-03T02:49:56;16.20;97.90
52543;DHT22;38449;52.696;6.186;2022-09-03T02:52:22;16.10;97.90
52543;DHT22;38449;52.696;6.186;2022-09-03T02:54:47;16.20;98.00
52543;DHT22;38449;52.696;6.186;2022-09-03T02:57:15;16.10;98.10
52543;DHT22;38449;52.696;6.186;2022-09-03T02:59:42;16.10;98.00
52543;DHT22;38449;52.696;6.186;2022-09-03T03:02:09;16.20;98.00
52543;DHT22;38449;52.696;6.186;2022-09-03T03:04:36;16.10;98.10
52543;DHT22;38449;52.696;6.186;2022-09-03T03:07:02;16.10;98.20
52543;DHT22;38449;52.696;6.186;2022-09-03T03:09:28;16.10;98.40
52543;DHT22;38449;52.696;6.186;2022-09-03T03:11:53;16.10;98.10
52543;DHT22;38449;52.696;6.186;2022-09-03T03:14:20;16.10;98.10
52543;DHT22;38449;52.696;6.186;2022-09-03T03:16:47;16.10;98.00
52543;DHT22;38449;52.696;6.186;2022-09-03T03:19:13;16.10;98.10
52543;DHT22;38449;52.696;6.186;2022-09-03T03:21:38;16.00;98.20
52543;DHT22;38449;52.696;6.186;2022-09-03T03:24:04;16.00;98.20
52543;DHT22;38449;52.696;6.186;2022-09-03T03:26:31;16.00;98.20
52543;DHT22;38449;52.696;6.186;2022-09-03T03:28:58;16.00;98.30
52543;DHT22;38449;52.696;6.186;2022-09-03T03:31:25;16.10;98.20
52543;DHT22;38449;52.696;6.186;2022-09-03T03:34:00;16.10;98.20
52543;DHT22;38449;52.696;6.186;2022-09-03T03:36:28;16.00;98.20
52543;DHT22;38449;52.696;6.186;2022-09-03T03:38:56;16.00;98.20
52543;DHT22;38449;52.696;6.186;2022-09-03T03:41:28;16.00;98.30
52543;DHT22;38449;52.696;6.186;2022-09-03T03:43:57;16.00;98.20
52543;DHT22;38449;52.696;6.186;2022-09-03T03:46:24;16.00;98.20
52543;DHT22;38449;52.696;6.186;2022-09-03T03:48:53;15.90;98.30
52543;DHT22;38449;52.696;6.186;2022-09-03T03:51:19;15.90;98.30
52543;DHT22;38449;52.696;6.186;2022-09-03T03:53:45;15.90;98.30
52543;DHT22;38449;52.696;6.186;2022-09-03T03:56:13;15.80;98.40
52543;DHT22;38449;52.696;6.186;2022-09-03T03:58:40;15.80;98.50
52543;DHT22;38449;52.696;6.186;2022-09-03T04:03:34;15.80;98.50
52543;DHT22;38449;52.696;6.186;2022-09-03T04:06:01;15.70;98.50
52543;DHT22;38449;52.696;6.186;2022-09-03T04:08:29;15.70;98.60
52543;DHT22;38449;52.696;6.186;2022-09-03T04:10:59;15.70;98.60
52543;DHT22;38449;52.696;6.186;2022-09-03T04:13:28;15.70;98.60
52543;DHT22;38449;52.696;6.186;2022-09-03T04:16:00;15.70;98.60
52543;DHT22;38449;52.696;6.186;2022-09-03T04:18:26;15.60;98.60
52543;DHT22;38449;52.696;6.186;2022-09-03T04:20:52;15.60;98.70
52543;DHT22;38449;52.696;6.186;2022-09-03T04:23:17;15.40;98.90
52543;DHT22;38449;52.696;6.186;2022-09-03T04:25:43;15.50;98.90
52543;DHT22;38449;52.696;6.186;2022-09-03T04:28:09;15.40;99.00
52543;DHT22;38449;52.696;6.186;2022-09-03T04:30:36;15.40;99.10
52543;DHT22;38449;52.696;6.186;2022-09-03T04:33:02;15.40;99.10
52543;DHT22;38449;52.696;6.186;2022-09-03T04:35:28;15.30;99.20
52543;DHT22;38449;52.696;6.186;2022-09-03T04:37:58;15.30;99.20
52543;DHT22;38449;52.696;6.186;2022-09-03T04:40:24;15.30;99.20
52543;DHT22;38449;52.696;6.186;2022-09-03T04:42:49;15.20;99.20
52543;DHT22;38449;52.696;6.186;2022-09-03T04:45:16;15.20;99.30
52543;DHT22;38449;52.696;6.186;2022-09-03T04:47:54;15.20;99.30
52543;DHT22;38449;52.696;6.186;2022-09-03T04:50:20;15.20;99.40
52543;DHT22;38449;52.696;6.186;2022-09-03T04:52:46;15.10;99.50
52543;DHT22;38449;52.696;6.186;2022-09-03T04:55:11;15.10;99.60
52543;DHT22;38449;52.696;6.186;2022-09-03T04:57:37;15.10;99.50
52543;DHT22;38449;52.696;6.186;2022-09-03T05:00:04;15.10;99.70
52543;DHT22;38449;52.696;6.186;2022-09-03T05:02:29;15.00;99.80
52543;DHT22;38449;52.696;6.186;2022-09-03T05:04:55;15.00;99.80
52543;DHT22;38449;52.696;6.186;2022-09-03T05:07:21;15.00;99.80
52543;DHT22;38449;52.696;6.186;2022-09-03T05:09:47;14.90;99.80
52543;DHT22;38449;52.696;6.186;2022-09-03T05:12:13;15.00;99.80
52543;DHT22;38449;52.696;6.186;2022-09-03T05:14:38;14.90;99.80
52543;DHT22;38449;52.696;6.186;2022-09-03T05:17:04;14.90;99.90
52543;DHT22;38449;52.696;6.186;2022-09-03T05:19:29;15.00;99.80
52543;DHT22;38449;52.696;6.186;2022-09-03T05:21:56;14.90;99.90
52543;DHT22;38449;52.696;6.186;2022-09-03T05:24:21;14.90;99.90
52543;DHT22;38449;52.696;6.186;2022-09-03T05:26:47;14.80;99.90
52543;DHT22;38449;52.696;6.186;2022-09-03T05:29:13;14.80;99.90
52543;DHT22;38449;52.696;6.186;2022-09-03T05:31:40;14.80;99.90
52543;DHT22;38449;52.696;6.186;2022-09-03T05:34:07;14.80;99.90
52543;DHT22;38449;52.696;6.186;2022-09-03T05:36:36;14.80;99.90
52543;DHT22;38449;52.696;6.186;2022-09-03T05:39:03;14.90;99.90
52543;DHT22;38449;52.696;6.186;2022-09-03T05:41:29;14.80;99.90
52543;DHT22;38449;52.696;6.186;2022-09-03T05:43:56;14.80;99.90
52543;DHT22;38449;52.696;6.186;2022-09-03T05:46:27;14.80;99.90
52543;DHT22;38449;52.696;6.186;2022-09-03T05:49:03;14.80;99.90
52543;DHT22;38449;52.696;6.186;2022-09-03T05:51:30;14.80;99.90
52543;DHT22;38449;52.696;6.186;2022-09-03T05:53:56;14.80;99.90
52543;DHT22;38449;52.696;6.186;2022-09-03T05:56:25;15.00;99.90
52543;DHT22;38449;52.696;6.186;2022-09-03T05:58:54;15.00;99.90
52543;DHT22;38449;52.696;6.186;2022-09-03T06:01:42;15.10;99.90
52543;DHT22;38449;52.696;6.186;2022-09-03T06:04:11;15.20;99.90
52543;DHT22;38449;52.696;6.186;2022-09-03T06:06:40;15.60;99.90
52543;DHT22;38449;52.696;6.186;2022-09-03T06:09:18;16.00;99.30
52543;DHT22;38449;52.696;6.186;2022-09-03T06:11:44;16.60;98.50
52543;DHT22;38449;52.696;6.186;2022-09-03T06:14:12;17.30;97.60
52543;DHT22;38449;52.696;6.186;2022-09-03T06:16:40;17.70;96.90
52543;DHT22;38449;52.696;6.186;2022-09-03T06:19:07;18.10;96.60
52543;DHT22;38449;52.696;6.186;2022-09-03T06:21:38;18.30;96.10
52543;DHT22;38449;52.696;6.186;2022-09-03T06:24:12;18.40;95.90
52543;DHT22;38449;52.696;6.186;2022-09-03T06:26:38;18.60;95.60
52543;DHT22;38449;52.696;6.186;2022-09-03T06:29:05;18.60;95.70
52543;DHT22;38449;52.696;6.186;2022-09-03T06:31:30;18.90;95.50
52543;DHT22;38449;52.696;6.186;2022-09-03T06:33:56;19.10;95.40
52543;DHT22;38449;52.696;6.186;2022-09-03T06:36:23;19.30;95.20
52543;DHT22;38449;52.696;6.186;2022-09-03T06:38:55;19.40;94.90
52543;DHT22;38449;52.696;6.186;2022-09-03T06:41:24;19.40;94.80
52543;DHT22;38449;52.696;6.186;2022-09-03T06:43:58;19.30;94.90
52543;DHT22;38449;52.696;6.186;2022-09-03T06:46:28;19.40;94.90
52543;DHT22;38449;52.696;6.186;2022-09-03T06:48:54;19.40;94.90
52543;DHT22;38449;52.696;6.186;2022-09-03T06:51:22;19.40;94.90
52543;DHT22;38449;52.696;6.186;2022-09-03T06:53:50;19.60;94.50
52543;DHT22;38449;52.696;6.186;2022-09-03T06:56:19;19.60;94.80
52543;DHT22;38449;52.696;6.186;2022-09-03T06:58:51;19.50;94.80
52543;DHT22;38449;52.696;6.186;2022-09-03T07:01:20;19.60;94.80
52543;DHT22;38449;52.696;6.186;2022-09-03T07:03:50;19.80;94.80
52543;DHT22;38449;52.696;6.186;2022-09-03T07:06:18;19.90;94.50
52543;DHT22;38449;52.696;6.186;2022-09-03T07:08:45;19.80;94.70
52543;DHT22;38449;52.696;6.186;2022-09-03T07:11:14;19.60;94.90
52543;DHT22;38449;52.696;6.186;2022-09-03T07:13:42;19.40;95.20
52543;DHT22;38449;52.696;6.186;2022-09-03T07:16:33;19.40;95.30
52543;DHT22;38449;52.696;6.186;2022-09-03T07:18:59;19.20;95.30
52543;DHT22;38449;52.696;6.186;2022-09-03T07:21:27;19.20;95.50
52543;DHT22;38449;52.696;6.186;2022-09-03T07:23:54;19.10;95.30
52543;DHT22;38449;52.696;6.186;2022-09-03T07:26:28;19.00;95.70
52543;DHT22;38449;52.696;6.186;2022-09-03T07:28:54;19.00;95.80
52543;DHT22;38449;52.696;6.186;2022-09-03T07:33:52;19.10;95.90
52543;DHT22;38449;52.696;6.186;2022-09-03T07:36:20;19.20;95.90
52543;DHT22;38449;52.696;6.186;2022-09-03T07:38:46;19.30;95.80
52543;DHT22;38449;52.696;6.186;2022-09-03T07:41:13;19.40;95.70
52543;DHT22;38449;52.696;6.186;2022-09-03T07:43:45;19.40;95.40
52543;DHT22;38449;52.696;6.186;2022-09-03T07:46:19;19.50;95.30
52543;DHT22;38449;52.696;6.186;2022-09-03T07:48:55;19.60;95.00
52543;DHT22;38449;52.696;6.186;2022-09-03T07:51:23;19.80;95.10
52543;DHT22;38449;52.696;6.186;2022-09-03T07:53:52;19.90;95.10
52543;DHT22;38449;52.696;6.186;2022-09-03T07:56:18;20.00;94.80
52543;DHT22;38449;52.696;6.186;2022-09-03T07:58:44;20.10;94.70
52543;DHT22;38449;52.696;6.186;2022-09-03T08:01:10;20.00;94.60
52543;DHT22;38449;52.696;6.186;2022-09-03T08:03:37;20.20;94.50
52543;DHT22;38449;52.696;6.186;2022-09-03T08:06:05;20.20;94.50
52543;DHT22;38449;52.696;6.186;2022-09-03T08:08:32;20.30;94.40
52543;DHT22;38449;52.696;6.186;2022-09-03T08:13:33;20.40;94.60
52543;DHT22;38449;52.696;6.186;2022-09-03T08:15:59;20.30;94.20
52543;DHT22;38449;52.696;6.186;2022-09-03T08:18:25;20.30;94.40
52543;DHT22;38449;52.696;6.186;2022-09-03T08:20:51;20.40;94.40
52543;DHT22;38449;52.696;6.186;2022-09-03T08:23:17;20.40;94.40
52543;DHT22;38449;52.696;6.186;2022-09-03T08:25:42;20.60;94.30
52543;DHT22;38449;52.696;6.186;2022-09-03T08:28:08;20.70;94.40
52543;DHT22;38449;52.696;6.186;2022-09-03T08:30:35;20.90;94.30
52543;DHT22;38449;52.696;6.186;2022-09-03T08:33:01;20.90;94.30
52543;DHT22;38449;52.696;6.186;2022-09-03T08:35:29;21.00;94.10
52543;DHT22;38449;52.696;6.186;2022-09-03T08:37:56;21.10;94.00
52543;DHT22;38449;52.696;6.186;2022-09-03T08:40:22;21.20;94.10
52543;DHT22;38449;52.696;6.186;2022-09-03T08:43:16;21.30;93.90
52543;DHT22;38449;52.696;6.186;2022-09-03T08:45:43;21.30;93.40
52543;DHT22;38449;52.696;6.186;2022-09-03T08:48:13;21.30;93.80
52543;DHT22;38449;52.696;6.186;2022-09-03T08:50:43;21.30;93.60
52543;DHT22;38449;52.696;6.186;2022-09-03T08:55:42;21.50;93.60
52543;DHT22;38449;52.696;6.186;2022-09-03T08:58:17;21.50;93.60
52543;DHT22;38449;52.696;6.186;2022-09-03T09:01:00;21.60;93.60
52543;DHT22;38449;52.696;6.186;2022-09-03T09:17:07;22.20;92.80
52543;DHT22;38449;52.696;6.186;2022-09-03T09:25:05;22.30;92.60
52543;DHT22;38449;52.696;6.186;2022-09-03T09:27:33;22.40;92.80
52543;DHT22;38449;52.696;6.186;2022-09-03T09:30:03;22.50;92.80
52543;DHT22;38449;52.696;6.186;2022-09-03T09:32:29;22.60;92.50
52543;DHT22;38449;52.696;6.186;2022-09-03T09:34:56;22.70;92.80
52543;DHT22;38449;52.696;6.186;2022-09-03T09:37:22;22.80;92.70
52543;DHT22;38449;52.696;6.186;2022-09-03T09:39:58;22.80;92.60
52543;DHT22;38449;52.696;6.186;2022-09-03T09:42:24;23.00;92.30
52543;DHT22;38449;52.696;6.186;2022-09-03T09:44:51;23.00;92.20
52543;DHT22;38449;52.696;6.186;2022-09-03T09:47:27;23.00;92.30
52543;DHT22;38449;52.696;6.186;2022-09-03T09:49:55;23.20;92.40
52543;DHT22;38449;52.696;6.186;2022-09-03T09:52:23;23.30;92.30
52543;DHT22;38449;52.696;6.186;2022-09-03T09:54:51;23.30;92.20
52543;DHT22;38449;52.696;6.186;2022-09-03T09:57:25;23.40;92.10
52543;DHT22;38449;52.696;6.186;2022-09-03T10:00:08;23.50;92.10
52543;DHT22;38449;52.696;6.186;2022-09-03T10:02:37;23.60;91.80
52543;DHT22;38449;52.696;6.186;2022-09-03T10:05:23;23.70;91.60
52543;DHT22;38449;52.696;6.186;2022-09-03T10:08:01;23.80;91.40
52543;DHT22;38449;52.696;6.186;2022-09-03T10:10:29;23.80;91.00
52543;DHT22;38449;52.696;6.186;2022-09-03T10:15:46;23.90;91.00
52543;DHT22;38449;52.696;6.186;2022-09-03T10:18:23;23.90;91.30
52543;DHT22;38449;52.696;6.186;2022-09-03T10:21:10;24.10;91.00
52543;DHT22;38449;52.696;6.186;2022-09-03T10:26:41;24.10;90.90
52543;DHT22;38449;52.696;6.186;2022-09-03T10:29:09;24.20;90.80
52543;DHT22;38449;52.696;6.186;2022-09-03T10:32:07;24.30;90.80
52543;DHT22;38449;52.696;6.186;2022-09-03T10:34:55;24.40;90.70
52543;DHT22;38449;52.696;6.186;2022-09-03T10:40:41;24.70;90.00
52543;DHT22;38449;52.696;6.186;2022-09-03T10:46:25;24.80;89.20
52543;DHT22;38449;52.696;6.186;2022-09-03T10:51:40;25.10;90.00
52543;DHT22;38449;52.696;6.186;2022-09-03T11:05:05;25.20;87.40
52543;DHT22;38449;52.696;6.186;2022-09-03T11:10:38;25.30;85.70
52543;DHT22;38449;52.696;6.186;2022-09-03T11:13:15;25.20;85.20
52543;DHT22;38449;52.696;6.186;2022-09-03T11:18:21;25.30;85.90
52543;DHT22;38449;52.696;6.186;2022-09-03T11:20:50;25.40;85.70
52543;DHT22;38449;52.696;6.186;2022-09-03T11:23:18;25.40;85.90
52543;DHT22;38449;52.696;6.186;2022-09-03T11:25:53;25.40;85.90
52543;DHT22;38449;52.696;6.186;2022-09-03T11:31:05;25.60;85.50
52543;DHT22;38449;52.696;6.186;2022-09-03T11:33:44;25.70;85.40
52543;DHT22;38449;52.696;6.186;2022-09-03T11:36:10;25.80;84.00
52543;DHT22;38449;52.696;6.186;2022-09-03T11:38:36;25.80;84.80
52543;DHT22;38449;52.696;6.186;2022-09-03T11:43:36;25.90;83.50
52543;DHT22;38449;52.696;6.186;2022-09-03T11:48:47;25.90;82.70
52543;DHT22;38449;52.696;6.186;2022-09-03T11:53:56;26.00;82.00
52543;DHT22;38449;52.696;6.186;2022-09-03T11:56:23;26.00;82.60
52543;DHT22;38449;52.696;6.186;2022-09-03T11:59:24;26.10;82.00
52543;DHT22;38449;52.696;6.186;2022-09-03T12:02:09;26.20;81.50
52543;DHT22;38449;52.696;6.186;2022-09-03T12:07:39;26.10;82.20
52543;DHT22;38449;52.696;6.186;2022-09-03T12:18:48;26.20;81.30
52543;DHT22;38449;52.696;6.186;2022-09-03T12:21:18;26.30;81.60
52543;DHT22;38449;52.696;6.186;2022-09-03T12:23:48;26.20;82.10
52543;DHT22;38449;52.696;6.186;2022-09-03T12:26:19;26.20;81.50
52543;DHT22;38449;52.696;6.186;2022-09-03T12:28:51;26.20;81.30
52543;DHT22;38449;52.696;6.186;2022-09-03T12:31:20;26.20;81.30
52543;DHT22;38449;52.696;6.186;2022-09-03T12:34:17;26.30;81.50
52543;DHT22;38449;52.696;6.186;2022-09-03T12:36:44;26.30;81.70
52543;DHT22;38449;52.696;6.186;2022-09-03T12:39:21;26.40;81.70
52543;DHT22;38449;52.696;6.186;2022-09-03T12:47:10;26.50;81.30
52543;DHT22;38449;52.696;6.186;2022-09-03T12:49:38;26.50;81.60
52543;DHT22;38449;52.696;6.186;2022-09-03T12:52:29;26.40;81.00
52543;DHT22;38449;52.696;6.186;2022-09-03T12:54:59;26.50;81.20
52543;DHT22;38449;52.696;6.186;2022-09-03T12:57:34;26.50;81.50
52543;DHT22;38449;52.696;6.186;2022-09-03T13:00:06;26.60;81.80
52543;DHT22;38449;52.696;6.186;2022-09-03T13:05:41;26.60;81.60
52543;DHT22;38449;52.696;6.186;2022-09-03T13:08:12;26.60;81.20
52543;DHT22;38449;52.696;6.186;2022-09-03T13:10:39;26.60;81.50
52543;DHT22;38449;52.696;6.186;2022-09-03T13:13:25;26.50;81.50
52543;DHT22;38449;52.696;6.186;2022-09-03T13:21:43;26.60;81.60
52543;DHT22;38449;52.696;6.186;2022-09-03T13:27:17;26.70;81.30
52543;DHT22;38449;52.696;6.186;2022-09-03T13:30:09;26.70;81.10
52543;DHT22;38449;52.696;6.186;2022-09-03T13:32:59;26.60;81.00
52543;DHT22;38449;52.696;6.186;2022-09-03T13:35:32;26.60;81.40
52543;DHT22;38449;52.696;6.186;2022-09-03T13:40:51;26.60;81.60
52543;DHT22;38449;52.696;6.186;2022-09-03T13:43:42;26.60;81.40
52543;DHT22;38449;52.696;6.186;2022-09-03T13:46:22;26.60;81.50
52543;DHT22;38449;52.696;6.186;2022-09-03T13:48:49;26.70;81.80
52543;DHT22;38449;52.696;6.186;2022-09-03T13:51:48;26.60;81.40
52543;DHT22;38449;52.696;6.186;2022-09-03T13:54:36;26.70;81.90
52543;DHT22;38449;52.696;6.186;2022-09-03T13:57:08;26.80;81.50
52543;DHT22;38449;52.696;6.186;2022-09-03T13:59:46;26.80;80.60
52543;DHT22;38449;52.696;6.186;2022-09-03T14:02:53;26.70;81.00
52543;DHT22;38449;52.696;6.186;2022-09-03T14:19:18;26.30;82.10
52543;DHT22;38449;52.696;6.186;2022-09-03T14:21:56;26.50;81.20
52543;DHT22;38449;52.696;6.186;2022-09-03T14:24:33;26.50;80.80
52543;DHT22;38449;52.696;6.186;2022-09-03T14:27:03;26.50;81.30
52543;DHT22;38449;52.696;6.186;2022-09-03T14:29:32;26.50;81.50
52543;DHT22;38449;52.696;6.186;2022-09-03T14:32:18;26.60;81.50
52543;DHT22;38449;52.696;6.186;2022-09-03T14:46:03;26.70;80.60
52543;DHT22;38449;52.696;6.186;2022-09-03T14:52:03;26.70;81.30
52543;DHT22;38449;52.696;6.186;2022-09-03T14:55:10;26.70;81.40
52543;DHT22;38449;52.696;6.186;2022-09-03T14:58:01;26.60;80.50
52543;DHT22;38449;52.696;6.186;2022-09-03T15:00:42;26.60;81.10
52543;DHT22;38449;52.696;6.186;2022-09-03T15:03:15;26.70;81.20
52543;DHT22;38449;52.696;6.186;2022-09-03T15:10:56;27.00;80.60
52543;DHT22;38449;52.696;6.186;2022-09-03T15:13:33;27.00;80.30
52543;DHT22;38449;52.696;6.186;2022-09-03T15:19:09;26.90;80.30
52543;DHT22;38449;52.696;6.186;2022-09-03T15:35:56;26.70;80.00
52543;DHT22;38449;52.696;6.186;2022-09-03T15:40:59;26.80;80.50
52543;DHT22;38449;52.696;6.186;2022-09-03T15:43:29;26.90;80.80
52543;DHT22;38449;52.696;6.186;2022-09-03T15:45:59;26.90;80.20
52543;DHT22;38449;52.696;6.186;2022-09-03T15:51:32;26.90;80.30
52543;DHT22;38449;52.696;6.186;2022-09-03T15:56:37;26.90;80.40
52543;DHT22;38449;52.696;6.186;2022-09-03T16:02:05;26.80;81.00
52543;DHT22;38449;52.696;6.186;2022-09-03T16:17:34;26.70;80.80
52543;DHT22;38449;52.696;6.186;2022-09-03T16:20:47;26.70;81.20
52543;DHT22;38449;52.696;6.186;2022-09-03T16:23:09;26.70;81.60
52543;DHT22;38449;52.696;6.186;2022-09-03T16:28:17;26.60;81.20
52543;DHT22;38449;52.696;6.186;2022-09-03T16:34:11;26.60;80.40
52543;DHT22;38449;52.696;6.186;2022-09-03T16:39:42;26.50;80.80
52543;DHT22;38449;52.696;6.186;2022-09-03T16:45:27;26.40;81.70
52543;DHT22;38449;52.696;6.186;2022-09-03T16:51:15;26.30;82.30
52543;DHT22;38449;52.696;6.186;2022-09-03T16:56:36;26.30;82.70
52543;DHT22;38449;52.696;6.186;2022-09-03T17:01:54;26.20;82.50
52543;DHT22;38449;52.696;6.186;2022-09-03T17:12:37;26.00;82.90
52543;DHT22;38449;52.696;6.186;2022-09-03T17:22:52;25.70;83.80
52543;DHT22;38449;52.696;6.186;2022-09-03T17:30:58;25.50;84.40
52543;DHT22;38449;52.696;6.186;2022-09-03T17:33:48;25.50;84.60
52543;DHT22;38449;52.696;6.186;2022-09-03T17:36:23;25.40;84.70
52543;DHT22;38449;52.696;6.186;2022-09-03T17:39:10;25.40;84.70
52543;DHT22;38449;52.696;6.186;2022-09-03T17:41:59;25.40;84.90
52543;DHT22;38449;52.696;6.186;2022-09-03T17:44:37;25.30;85.00
52543;DHT22;38449;52.696;6.186;2022-09-03T17:50:22;25.30;84.90
52543;DHT22;38449;52.696;6.186;2022-09-03T17:53:03;25.20;85.10
52543;DHT22;38449;52.696;6.186;2022-09-03T17:55:51;25.20;85.50
52543;DHT22;38449;52.696;6.186;2022-09-03T18:01:15;25.00;86.10
52543;DHT22;38449;52.696;6.186;2022-09-03T18:04:01;24.80;86.30
52543;DHT22;38449;52.696;6.186;2022-09-03T18:06:59;24.70;86.70
52543;DHT22;38449;52.696;6.186;2022-09-03T18:12:55;24.50;87.30
52543;DHT22;38449;52.696;6.186;2022-09-03T18:18:11;24.30;87.80
52543;DHT22;38449;52.696;6.186;2022-09-03T18:20:42;24.20;88.00
52543;DHT22;38449;52.696;6.186;2022-09-03T18:23:57;24.10;88.20
52543;DHT22;38449;52.696;6.186;2022-09-03T18:27:10;24.00;88.50
52543;DHT22;38449;52.696;6.186;2022-09-03T18:30:08;23.90;89.10
52543;DHT22;38449;52.696;6.186;2022-09-03T18:32:53;23.80;88.80
52543;DHT22;38449;52.696;6.186;2022-09-03T18:35:38;23.70;89.20
52543;DHT22;38449;52.696;6.186;2022-09-03T18:38:27;23.70;89.40
52543;DHT22;38449;52.696;6.186;2022-09-03T18:44:34;23.50;89.80
52543;DHT22;38449;52.696;6.186;2022-09-03T18:50:25;23.30;90.10
52543;DHT22;38449;52.696;6.186;2022-09-03T18:53:24;23.20;90.20
52543;DHT22;38449;52.696;6.186;2022-09-03T19:02:32;23.10;90.50
52543;DHT22;38449;52.696;6.186;2022-09-03T19:11:29;22.90;90.80
52543;DHT22;38449;52.696;6.186;2022-09-03T19:18:04;22.70;91.10
52543;DHT22;38449;52.696;6.186;2022-09-03T19:24:14;22.60;91.30
52543;DHT22;38449;52.696;6.186;2022-09-03T19:27:28;22.60;91.30
52543;DHT22;38449;52.696;6.186;2022-09-03T19:30:20;22.60;91.50
52543;DHT22;38449;52.696;6.186;2022-09-03T19:33:31;22.60;91.40
52543;DHT22;38449;52.696;6.186;2022-09-03T19:36:41;22.60;91.80
52543;DHT22;38449;52.696;6.186;2022-09-03T19:39:45;22.50;91.60
52543;DHT22;38449;52.696;6.186;2022-09-03T19:46:11;22.50;91.70
52543;DHT22;38449;52.696;6.186;2022-09-03T19:52:09;22.40;91.80
52543;DHT22;38449;52.696;6.186;2022-09-03T19:54:57;22.30;91.90
52543;DHT22;38449;52.696;6.186;2022-09-03T19:57:44;22.20;92.00
52543;DHT22;38449;52.696;6.186;2022-09-03T20:00:30;22.10;92.10
52543;DHT22;38449;52.696;6.186;2022-09-03T20:03:16;22.00;92.20
52543;DHT22;38449;52.696;6.186;2022-09-03T20:06:02;21.90;92.40
52543;DHT22;38449;52.696;6.186;2022-09-03T20:08:49;21.80;92.50
52543;DHT22;38449;52.696;6.186;2022-09-03T20:11:35;21.80;92.70
52543;DHT22;38449;52.696;6.186;2022-09-03T20:14:13;21.60;92.90
52543;DHT22;38449;52.696;6.186;2022-09-03T20:25:20;21.40;93.40
52543;DHT22;38449;52.696;6.186;2022-09-03T20:27:57;21.30;93.60
52543;DHT22;38449;52.696;6.186;2022-09-03T20:30:47;21.20;93.90
52543;DHT22;38449;52.696;6.186;2022-09-03T20:33:29;21.20;93.90
52543;DHT22;38449;52.696;6.186;2022-09-03T20:41:28;21.00;94.10
52543;DHT22;38449;52.696;6.186;2022-09-03T20:53:04;20.80;94.60
52543;DHT22;38449;52.696;6.186;2022-09-03T20:55:42;20.70;94.40
52543;DHT22;38449;52.696;6.186;2022-09-03T20:58:20;20.70;94.50
52543;DHT22;38449;52.696;6.186;2022-09-03T21:06:40;20.60;94.60
52543;DHT22;38449;52.696;6.186;2022-09-03T21:12:02;20.50;94.70
52543;DHT22;38449;52.696;6.186;2022-09-03T21:26:40;20.30;95.00
52543;DHT22;38449;52.696;6.186;2022-09-03T21:29:01;20.20;94.90
52543;DHT22;38449;52.696;6.186;2022-09-03T21:31:37;20.10;95.10
52543;DHT22;38449;52.696;6.186;2022-09-03T21:34:13;20.10;95.10
52543;DHT22;38449;52.696;6.186;2022-09-03T21:36:44;20.00;95.10
52543;DHT22;38449;52.696;6.186;2022-09-03T21:39:30;20.00;95.10
52543;DHT22;38449;52.696;6.186;2022-09-03T21:42:10;20.10;95.10
52543;DHT22;38449;52.696;6.186;2022-09-03T21:44:50;20.00;95.10
52543;DHT22;38449;52.696;6.186;2022-09-03T21:47:18;19.90;95.10
52543;DHT22;38449;52.696;6.186;2022-09-03T21:50:04;19.90;95.00
52543;DHT22;38449;52.696;6.186;2022-09-03T21:55:19;19.80;95.30
52543;DHT22;38449;52.696;6.186;2022-09-03T22:00:17;19.80;95.20
52543;DHT22;38449;52.696;6.186;2022-09-03T22:02:44;19.70;95.10
52543;DHT22;38449;52.696;6.186;2022-09-03T22:05:12;19.70;95.10
52543;DHT22;38449;52.696;6.186;2022-09-03T22:10:28;19.60;95.20
52543;DHT22;38449;52.696;6.186;2022-09-03T22:15:42;19.60;95.20
52543;DHT22;38449;52.696;6.186;2022-09-03T22:18:27;19.50;95.20
52543;DHT22;38449;52.696;6.186;2022-09-03T22:29:55;19.40;95.30
52543;DHT22;38449;52.696;6.186;2022-09-03T22:32:50;19.40;95.30
52543;DHT22;38449;52.696;6.186;2022-09-03T22:35:35;19.30;95.30